createdAt,value
2023-05-14T00:01:44.605Z,4.93
2023-05-14T00:04:12.583Z,5.00
2023-05-14T00:06:41.963Z,5.10
2023-05-14T00:09:09.864Z,5.80
2023-05-14T00:11:37.848Z,5.15
2023-05-14T00:14:06.023Z,5.03
2023-05-14T00:16:33.954Z,5.28
2023-05-14T00:19:01.991Z,5.10
2023-05-14T00:21:29.826Z,5.38
2023-05-14T00:23:59.089Z,4.90
2023-05-14T00:26:27.093Z,5.55
2023-05-14T00:28:54.941Z,4.77
2023-05-14T00:31:22.758Z,5.10
2023-05-14T00:33:50.771Z,5.00
2023-05-14T00:36:18.600Z,4.80
2023-05-14T00:38:46.444Z,5.67
2023-05-14T00:41:15.875Z,5.83
2023-05-14T00:43:43.734Z,4.93
2023-05-14T00:46:12.515Z,4.93
2023-05-14T00:48:40.495Z,4.77
2023-05-14T00:51:09.603Z,5.40
2023-05-14T00:53:37.979Z,4.87
2023-05-14T00:56:07.058Z,5.70
2023-05-14T00:58:36.282Z,5.10
2023-05-14T01:01:04.325Z,5.20
2023-05-14T01:03:35.596Z,5.30
2023-05-14T01:06:11.128Z,5.30
2023-05-14T01:08:50.963Z,5.20
2023-05-14T01:11:21.544Z,5.63
2023-05-14T01:14:00.459Z,5.60
2023-05-14T01:16:30.514Z,6.30
2023-05-14T01:19:01.115Z,5.97
2023-05-14T01:21:40.490Z,5.90
2023-05-14T01:24:09.285Z,5.80
2023-05-14T01:26:37.646Z,6.00
2023-05-14T01:29:14.969Z,6.10
2023-05-14T01:31:45.379Z,5.93
2023-05-14T01:34:15.383Z,6.30
2023-05-14T01:36:45.436Z,6.40
2023-05-14T01:39:15.254Z,7.10
2023-05-14T01:41:43.785Z,6.50
2023-05-14T01:44:12.249Z,6.73
2023-05-14T01:46:40.269Z,6.53
2023-05-14T01:49:08.209Z,6.30
2023-05-14T01:51:36.168Z,6.37
2023-05-14T01:54:05.651Z,6.40
2023-05-14T01:56:33.849Z,7.00
2023-05-14T01:59:03.162Z,6.13
2023-05-14T02:01:31.753Z,6.30
2023-05-14T02:04:00.110Z,6.47
2023-05-14T02:06:28.360Z,6.40
2023-05-14T02:08:56.186Z,6.57
2023-05-14T02:11:26.356Z,6.07
2023-05-14T02:13:54.188Z,6.30
2023-05-14T02:16:22.070Z,6.43
2023-05-14T02:18:50.065Z,6.20
2023-05-14T02:21:17.944Z,6.13
2023-05-14T02:23:45.791Z,6.27
2023-05-14T02:26:13.698Z,6.43
2023-05-14T02:28:42.922Z,6.50
2023-05-14T02:31:10.790Z,6.30
2023-05-14T02:33:38.941Z,6.60
2023-05-14T02:36:07.180Z,6.00
2023-05-14T02:38:35.016Z,6.83
2023-05-14T02:41:02.975Z,7.10
2023-05-14T02:43:30.816Z,7.10
2023-05-14T02:46:00.034Z,6.37
2023-05-14T02:48:28.035Z,6.03
2023-05-14T02:50:55.877Z,6.77
2023-05-14T02:53:23.728Z,6.37
2023-05-14T02:55:51.968Z,6.47
2023-05-14T02:58:19.813Z,6.83
2023-05-14T03:00:54.208Z,7.20
2023-05-14T03:03:23.915Z,6.70
2023-05-14T03:05:52.154Z,6.63
2023-05-14T03:08:20.092Z,6.60
2023-05-14T03:10:47.909Z,6.47
2023-05-14T03:13:20.844Z,6.73
2023-05-14T03:15:48.995Z,6.47
2023-05-14T03:18:16.867Z,6.07
2023-05-14T03:20:46.102Z,6.60
2023-05-14T03:23:14.956Z,6.97
2023-05-14T03:25:42.820Z,6.93
2023-05-14T03:28:13.070Z,7.57
2023-05-14T03:30:41.027Z,8.03
2023-05-14T03:33:08.925Z,7.30
2023-05-14T03:35:36.765Z,7.43
2023-05-14T03:38:06.155Z,7.10
2023-05-14T03:40:34.015Z,7.00
2023-05-14T03:43:01.845Z,6.53
2023-05-14T03:45:30.504Z,7.33
2023-05-14T03:47:58.439Z,7.00
2023-05-14T03:50:26.463Z,7.40
2023-05-14T03:52:55.085Z,6.50
2023-05-14T03:55:24.502Z,7.23
2023-05-14T03:57:52.462Z,6.90
2023-05-14T04:00:21.386Z,6.57
2023-05-14T04:02:49.700Z,6.73
2023-05-14T04:05:17.784Z,6.27
2023-05-14T04:07:46.241Z,6.83
2023-05-14T04:10:14.686Z,6.87
2023-05-14T04:12:43.895Z,6.57
2023-05-14T04:15:12.556Z,6.63
2023-05-14T04:17:40.465Z,6.68
2023-05-14T04:20:09.751Z,6.32
2023-05-14T04:22:37.680Z,6.07
2023-05-14T04:25:06.219Z,6.25
2023-05-14T04:27:34.655Z,6.10
2023-05-14T04:30:04.541Z,6.80
2023-05-14T04:32:32.384Z,6.15
2023-05-14T04:35:00.271Z,6.22
2023-05-14T04:37:28.184Z,6.00
2023-05-14T04:39:56.287Z,6.63
2023-05-14T04:42:24.185Z,5.93
2023-05-14T04:44:52.326Z,5.57
2023-05-14T04:47:22.305Z,5.78
2023-05-14T04:49:50.214Z,5.65
2023-05-14T04:52:18.130Z,5.78
2023-05-14T04:54:46.198Z,5.97
2023-05-14T04:57:14.341Z,5.30
2023-05-14T04:59:42.241Z,4.63
2023-05-14T05:02:10.315Z,5.50
2023-05-14T05:04:39.833Z,5.57
2023-05-14T05:07:07.727Z,5.28
2023-05-14T05:09:35.753Z,4.97
2023-05-14T05:12:03.587Z,5.20
2023-05-14T05:14:31.419Z,5.82
2023-05-14T05:16:59.637Z,5.20
2023-05-14T05:19:39.555Z,5.80
2023-05-14T05:22:12.987Z,5.68
2023-05-14T05:24:40.862Z,4.93
2023-05-14T05:27:08.892Z,5.50
2023-05-14T05:29:36.879Z,5.35
2023-05-14T05:32:05.168Z,4.72
2023-05-14T05:34:33.129Z,4.93
2023-05-14T05:37:01.018Z,4.57
2023-05-14T05:39:35.299Z,4.90
2023-05-14T05:42:03.985Z,4.47
2023-05-14T05:44:32.145Z,4.78
2023-05-14T05:47:00.199Z,4.65
2023-05-14T05:49:28.279Z,4.82
2023-05-14T05:51:56.131Z,4.50
2023-05-14T05:54:29.208Z,4.38
2023-05-14T05:56:58.511Z,5.10
2023-05-14T05:59:26.353Z,4.30
2023-05-14T06:01:56.591Z,4.90
2023-05-14T06:04:24.612Z,4.68
2023-05-14T06:06:52.634Z,4.60
2023-05-14T06:09:20.901Z,4.28
2023-05-14T06:11:51.650Z,4.60
2023-05-14T06:14:21.086Z,4.28
2023-05-14T06:16:49.020Z,4.32
2023-05-14T06:19:17.169Z,4.30
2023-05-14T06:21:45.295Z,4.88
2023-05-14T06:24:13.376Z,4.45
2023-05-14T06:26:41.402Z,4.80
2023-05-14T06:29:09.537Z,4.93
2023-05-14T06:31:38.815Z,4.20
2023-05-14T06:34:08.921Z,4.57
2023-05-14T06:36:37.049Z,4.50
2023-05-14T06:39:05.234Z,4.68
2023-05-14T06:41:33.208Z,4.68
2023-05-14T06:44:01.018Z,4.55
2023-05-14T06:46:28.846Z,4.00
2023-05-14T06:48:59.547Z,4.45
2023-05-14T06:51:27.782Z,4.00
2023-05-14T06:53:56.134Z,3.80
2023-05-14T06:56:24.231Z,3.70
2023-05-14T06:58:52.062Z,3.67
2023-05-14T07:01:19.955Z,3.47
2023-05-14T07:03:47.953Z,4.03
2023-05-14T07:06:18.585Z,3.67
2023-05-14T07:08:47.698Z,3.70
2023-05-14T07:11:17.316Z,3.78
2023-05-14T07:13:48.120Z,4.05
2023-05-14T07:16:16.099Z,4.75
2023-05-14T07:18:53.175Z,3.80
2023-05-14T07:21:22.484Z,3.50
2023-05-14T07:23:51.386Z,3.30
2023-05-14T07:26:21.608Z,3.50
2023-05-14T07:28:49.748Z,3.78
2023-05-14T07:31:17.917Z,3.13
2023-05-14T07:33:46.104Z,3.35
2023-05-14T07:36:14.268Z,3.42
2023-05-14T07:38:43.547Z,3.40
2023-05-14T07:41:12.273Z,3.10
2023-05-14T07:43:40.578Z,2.97
2023-05-14T07:46:08.488Z,3.00
2023-05-14T07:48:36.414Z,2.97
2023-05-14T07:51:04.410Z,3.08
2023-05-14T07:53:32.287Z,3.55
2023-05-14T07:56:01.523Z,3.17
2023-05-14T07:58:30.263Z,3.17
2023-05-14T08:00:58.093Z,3.00
2023-05-14T08:03:25.978Z,3.00
2023-05-14T08:05:54.000Z,2.97
2023-05-14T08:08:21.829Z,3.22
2023-05-14T08:10:49.746Z,3.35
2023-05-14T08:13:18.985Z,3.45
2023-05-14T08:15:48.155Z,2.85
2023-05-14T08:18:16.214Z,3.30
2023-05-14T08:20:44.037Z,3.05
2023-05-14T08:23:11.910Z,2.40
2023-05-14T08:25:39.864Z,2.83
2023-05-14T08:28:08.896Z,3.20
2023-05-14T08:30:38.295Z,2.80
2023-05-14T08:33:06.352Z,3.00
2023-05-14T08:35:34.369Z,3.17
2023-05-14T08:38:02.330Z,3.00
2023-05-14T08:40:30.487Z,2.80
2023-05-14T08:42:58.585Z,2.80
2023-05-14T08:45:34.193Z,2.80
2023-05-14T08:48:09.394Z,2.53
2023-05-14T08:50:37.662Z,2.33
2023-05-14T08:53:05.611Z,2.50
2023-05-14T08:55:34.213Z,2.60
2023-05-14T08:58:02.499Z,2.65
2023-05-14T09:00:30.900Z,2.80
2023-05-14T09:03:00.220Z,2.75
2023-05-14T09:05:29.592Z,3.15
2023-05-14T09:07:57.681Z,2.65
2023-05-14T09:10:26.309Z,2.80
2023-05-14T09:12:54.578Z,2.58
2023-05-14T09:15:22.382Z,2.95
2023-05-14T09:17:50.449Z,2.33
2023-05-14T09:20:18.504Z,2.53
2023-05-14T09:22:47.783Z,2.80
2023-05-14T09:25:15.614Z,2.70
2023-05-14T09:27:43.511Z,2.60
2023-05-14T09:30:12.993Z,2.58
2023-05-14T09:32:44.060Z,2.50
2023-05-14T09:35:15.021Z,2.40
2023-05-14T09:37:46.383Z,2.50
2023-05-14T09:40:18.978Z,2.40
2023-05-14T09:42:48.229Z,2.50
2023-05-14T09:45:17.114Z,2.42
2023-05-14T09:47:46.098Z,2.53
2023-05-14T09:50:14.395Z,3.00
2023-05-14T09:52:43.703Z,2.55
2023-05-14T09:55:15.711Z,3.00
2023-05-14T09:57:45.302Z,2.75
2023-05-14T10:00:15.813Z,2.53
2023-05-14T10:02:46.983Z,2.60
2023-05-14T10:05:16.793Z,2.80
2023-05-14T10:07:50.668Z,2.58
2023-05-14T10:10:21.673Z,2.60
2023-05-14T10:12:56.186Z,2.47
2023-05-14T10:15:31.494Z,2.38
2023-05-14T10:18:04.678Z,2.60
2023-05-14T10:20:33.324Z,2.50
2023-05-14T10:23:02.131Z,2.13
2023-05-14T10:25:32.091Z,1.95
2023-05-14T10:28:02.112Z,1.67
2023-05-14T10:30:31.387Z,1.90
2023-05-14T10:33:10.379Z,1.80
2023-05-14T10:36:01.730Z,1.50
2023-05-14T10:38:30.452Z,1.75
2023-05-14T10:41:01.077Z,2.22
2023-05-14T10:43:31.851Z,2.40
2023-05-14T10:46:01.695Z,2.10
2023-05-14T10:48:30.067Z,2.50
2023-05-14T10:50:58.833Z,2.25
2023-05-14T10:53:37.995Z,2.00
2023-05-14T10:56:07.546Z,2.60
2023-05-14T10:58:39.202Z,2.50
2023-05-14T11:01:08.528Z,2.28
2023-05-14T11:03:42.150Z,2.63
2023-05-14T11:06:11.302Z,2.50
2023-05-14T11:08:39.832Z,2.80
2023-05-14T11:11:08.172Z,2.20
2023-05-14T11:13:36.550Z,2.78
2023-05-14T11:18:38.897Z,2.50
2023-05-14T11:21:07.075Z,2.47
2023-05-14T11:23:34.974Z,2.15
2023-05-14T11:26:03.265Z,2.53
2023-05-14T11:28:31.362Z,2.38
2023-05-14T11:30:59.219Z,2.58
2023-05-14T11:33:29.223Z,2.20
2023-05-14T11:35:57.200Z,2.35
2023-05-14T11:38:25.502Z,2.50
2023-05-14T11:40:54.388Z,2.22
2023-05-14T11:43:23.747Z,2.03
2023-05-14T11:45:52.690Z,2.10
2023-05-14T11:48:20.952Z,2.53
2023-05-14T11:50:51.524Z,2.20
2023-05-14T11:53:20.382Z,2.00
2023-05-14T11:55:49.913Z,2.20
2023-05-14T11:58:19.519Z,2.65
2023-05-14T12:00:47.655Z,2.55
2023-05-14T12:03:15.828Z,2.22
2023-05-14T12:05:58.145Z,2.25
2023-05-14T12:08:28.545Z,2.28
2023-05-14T12:10:56.994Z,2.10
2023-05-14T12:13:27.712Z,2.20
2023-05-14T12:15:57.093Z,1.92
2023-05-14T12:18:26.450Z,2.30
2023-05-14T12:20:54.454Z,2.22
2023-05-14T12:23:28.012Z,3.20
2023-05-14T12:25:56.021Z,3.13
2023-05-14T12:28:24.745Z,1.92
2023-05-14T12:30:58.287Z,2.60
2023-05-14T12:33:27.360Z,3.35
2023-05-14T12:35:58.913Z,3.00
2023-05-14T12:38:30.065Z,2.80
2023-05-14T12:40:57.869Z,2.65
2023-05-14T12:43:30.003Z,3.03
2023-05-14T12:45:57.978Z,2.60
2023-05-14T12:48:26.177Z,2.20
2023-05-14T12:50:54.045Z,2.17
2023-05-14T12:53:22.063Z,2.63
2023-05-14T12:55:51.479Z,3.30
2023-05-14T12:58:19.351Z,3.47
2023-05-14T13:00:47.379Z,2.40
2023-05-14T13:03:15.333Z,2.20
2023-05-14T13:05:43.256Z,2.17
2023-05-14T13:08:11.367Z,2.45
2023-05-14T13:10:39.194Z,2.20
2023-05-14T13:13:08.475Z,1.98
2023-05-14T13:15:37.441Z,2.00
2023-05-14T13:18:05.855Z,2.13
2023-05-14T13:20:34.537Z,2.40
2023-05-14T13:23:03.089Z,1.70
2023-05-14T13:25:30.981Z,2.17
2023-05-14T13:27:58.840Z,2.10
2023-05-14T13:30:28.734Z,2.35
2023-05-14T13:32:56.601Z,2.03
2023-05-14T13:35:24.774Z,2.00
2023-05-14T13:37:53.320Z,1.80
2023-05-14T13:40:21.328Z,2.13
2023-05-14T13:42:50.660Z,2.30
2023-05-14T13:45:18.694Z,2.10
2023-05-14T13:47:49.411Z,2.60
2023-05-14T13:50:17.537Z,2.50
2023-05-14T13:52:45.549Z,2.47
2023-05-14T13:55:13.530Z,2.60
2023-05-14T13:57:43.085Z,2.60
2023-05-14T14:00:11.809Z,2.38
2023-05-14T14:02:39.822Z,2.30
2023-05-14T14:05:10.446Z,2.50
2023-05-14T14:07:38.954Z,2.65
2023-05-14T14:10:08.156Z,2.50
2023-05-14T14:12:36.816Z,2.25
2023-05-14T14:15:05.300Z,2.50
2023-05-14T14:17:34.256Z,2.30
2023-05-14T14:20:02.291Z,2.80
2023-05-14T14:22:31.881Z,2.53
2023-05-14T14:24:59.774Z,2.72
2023-05-14T14:27:27.802Z,2.30
2023-05-14T14:29:56.885Z,2.20
2023-05-14T14:32:25.014Z,2.00
2023-05-14T14:34:53.160Z,2.25
2023-05-14T14:37:23.017Z,2.15
2023-05-14T14:39:52.441Z,2.30
2023-05-14T14:42:20.476Z,2.33
2023-05-14T14:44:48.401Z,2.30
2023-05-14T14:47:18.610Z,2.25
2023-05-14T14:49:46.651Z,2.08
2023-05-14T14:52:15.643Z,2.42
2023-05-14T14:54:43.676Z,2.42
2023-05-14T14:57:13.311Z,2.13
2023-05-14T14:59:41.433Z,2.33
2023-05-14T15:02:11.002Z,2.10
2023-05-14T15:04:39.178Z,1.98
2023-05-14T15:07:07.400Z,2.35
2023-05-14T15:09:35.362Z,2.00
2023-05-14T15:12:03.530Z,1.90
2023-05-14T15:14:33.552Z,2.20
2023-05-14T15:17:01.924Z,2.30
2023-05-14T15:19:31.138Z,1.90
2023-05-14T15:21:59.254Z,2.00
2023-05-14T15:24:27.410Z,2.00
2023-05-14T15:26:55.833Z,2.03
2023-05-14T15:29:23.852Z,1.73
2023-05-14T15:31:53.390Z,1.75
2023-05-14T15:34:23.718Z,2.40
2023-05-14T15:36:52.204Z,2.20
2023-05-14T15:39:21.609Z,2.05
2023-05-14T15:41:49.707Z,1.92
2023-05-14T15:44:17.850Z,2.05
2023-05-14T15:46:45.964Z,2.17
2023-05-14T15:49:15.544Z,2.30
2023-05-14T15:51:43.533Z,2.40
2023-05-14T15:54:14.603Z,2.30
2023-05-14T15:56:42.593Z,2.00
2023-05-14T15:59:10.488Z,2.20
2023-05-14T16:01:38.431Z,2.38
2023-05-14T16:04:06.488Z,2.70
2023-05-14T16:06:36.357Z,2.58
2023-05-14T16:09:05.225Z,2.13
2023-05-14T16:11:33.139Z,2.60
2023-05-14T16:14:01.067Z,2.30
2023-05-14T16:16:29.053Z,2.10
2023-05-14T16:18:57.217Z,2.47
2023-05-14T16:21:25.269Z,2.22
2023-05-14T16:23:54.514Z,2.10
2023-05-14T16:26:22.869Z,2.20
2023-05-14T16:28:50.745Z,2.33
2023-05-14T16:31:18.886Z,2.00
2023-05-14T16:33:46.859Z,2.30
2023-05-14T16:36:14.709Z,2.60
2023-05-14T16:39:05.405Z,2.53
2023-05-14T16:41:32.181Z,2.50
2023-05-14T16:44:00.029Z,2.78
2023-05-14T16:46:29.389Z,2.38
2023-05-14T16:48:57.723Z,2.58
2023-05-14T16:51:25.696Z,2.83
2023-05-14T16:53:55.502Z,2.33
2023-05-14T16:56:23.917Z,2.60
2023-05-14T16:58:53.161Z,2.47
2023-05-14T17:01:21.068Z,2.83
2023-05-14T17:03:49.084Z,3.22
2023-05-14T17:06:17.090Z,2.85
2023-05-14T17:08:44.966Z,2.50
2023-05-14T17:11:12.946Z,2.85
2023-05-14T17:13:40.853Z,2.20
2023-05-14T17:16:10.192Z,2.00
2023-05-14T17:18:38.355Z,2.58
2023-05-14T17:21:07.563Z,2.10
2023-05-14T17:23:35.656Z,2.00
2023-05-14T17:26:03.901Z,2.28
2023-05-14T17:28:32.051Z,2.60
2023-05-14T17:30:59.927Z,2.17
2023-05-14T17:33:29.624Z,1.95
2023-05-14T17:35:57.621Z,2.15
2023-05-14T17:38:25.862Z,2.05
2023-05-14T17:40:54.360Z,2.45
2023-05-14T17:43:22.292Z,2.17
2023-05-14T17:45:54.457Z,2.45
2023-05-14T17:48:23.065Z,2.17
2023-05-14T17:50:52.457Z,2.38
2023-05-14T17:53:20.471Z,2.78
2023-05-14T17:55:48.499Z,2.20
2023-05-14T17:58:16.728Z,2.65
2023-05-14T18:00:44.850Z,2.55
2023-05-14T18:03:14.301Z,2.20
2023-05-14T18:05:44.776Z,2.30
2023-05-14T18:08:14.621Z,2.75
2023-05-14T18:10:42.496Z,2.45
2023-05-14T18:13:10.423Z,2.40
2023-05-14T18:15:38.792Z,2.30
2023-05-14T18:18:07.287Z,2.67
2023-05-14T18:20:35.650Z,2.20
2023-05-14T18:23:03.884Z,2.47
2023-05-14T18:25:33.297Z,2.65
2023-05-14T18:28:01.258Z,2.67
2023-05-14T18:30:29.157Z,2.40
2023-05-14T18:32:57.012Z,2.78
2023-05-14T18:35:25.053Z,2.47
2023-05-14T18:37:53.529Z,2.60
2023-05-14T18:40:21.630Z,2.75
2023-05-14T18:42:50.910Z,2.67
2023-05-14T18:45:22.370Z,2.70
2023-05-14T18:47:50.900Z,2.65
2023-05-14T18:50:18.957Z,2.92
2023-05-14T18:52:46.875Z,2.47
2023-05-14T18:55:14.837Z,2.90
2023-05-14T18:57:42.849Z,3.17
2023-05-14T19:00:13.824Z,3.22
2023-05-14T19:02:41.768Z,3.38
2023-05-14T19:05:09.974Z,3.10
2023-05-14T19:07:38.220Z,3.63
2023-05-14T19:10:07.475Z,3.58
2023-05-14T19:12:37.578Z,2.40
2023-05-14T19:15:06.552Z,2.88
2023-05-14T19:17:36.790Z,3.03
2023-05-14T19:20:05.915Z,2.85
2023-05-14T19:22:33.855Z,3.15
2023-05-14T19:25:02.040Z,2.65
2023-05-14T19:27:31.253Z,2.75
2023-05-14T19:29:59.140Z,2.42
2023-05-14T19:32:27.007Z,2.60
2023-05-14T19:34:58.943Z,3.05
2023-05-14T19:37:27.046Z,2.55
2023-05-14T19:39:54.888Z,2.60
2023-05-14T19:42:22.692Z,2.30
2023-05-14T19:44:51.311Z,2.60
2023-05-14T19:47:20.281Z,2.35
2023-05-14T19:49:48.135Z,2.53
2023-05-14T19:52:17.648Z,2.65
2023-05-14T19:54:45.506Z,2.83
2023-05-14T19:57:13.404Z,2.83
2023-05-14T19:59:41.488Z,2.70
2023-05-14T20:02:15.653Z,2.80
2023-05-14T20:04:45.572Z,3.15
2023-05-14T20:07:14.007Z,2.63
2023-05-14T20:09:43.530Z,2.97
2023-05-14T20:12:12.944Z,3.00
2023-05-14T20:14:41.671Z,2.70
2023-05-14T20:17:10.337Z,2.72
2023-05-14T20:19:38.412Z,2.63
2023-05-14T20:22:06.506Z,2.70
2023-05-14T20:24:34.324Z,2.90
2023-05-14T20:27:03.728Z,2.90
2023-05-14T20:29:31.639Z,3.28
2023-05-14T20:31:59.481Z,3.13
2023-05-14T20:34:27.389Z,3.10
2023-05-14T20:36:55.220Z,3.30
2023-05-14T20:39:23.320Z,3.42
2023-05-14T20:41:51.304Z,2.90
2023-05-14T20:44:20.824Z,2.95
2023-05-14T20:46:49.053Z,2.70
2023-05-14T20:49:17.098Z,3.10
2023-05-14T20:51:45.024Z,3.33
2023-05-14T20:54:12.891Z,3.28
2023-05-14T20:56:40.808Z,3.15
2023-05-14T20:59:08.696Z,3.08
2023-05-14T21:01:37.979Z,3.28
2023-05-14T21:04:06.240Z,2.83
2023-05-14T21:06:34.206Z,2.50
2023-05-14T21:09:02.050Z,2.80
2023-05-14T21:11:29.955Z,2.58
2023-05-14T21:13:58.756Z,2.10
2023-05-14T21:16:26.678Z,2.80
2023-05-14T21:18:56.245Z,2.65
2023-05-14T21:21:24.428Z,2.58
2023-05-14T21:23:52.268Z,2.55
2023-05-14T21:26:23.571Z,2.55
2023-05-14T21:28:51.402Z,2.85
2023-05-14T21:31:20.707Z,2.42
2023-05-14T21:33:48.725Z,2.50
2023-05-14T21:36:18.307Z,2.67
2023-05-14T21:38:46.113Z,2.60
2023-05-14T21:41:14.479Z,2.85
2023-05-14T21:43:43.814Z,2.55
2023-05-14T21:46:11.793Z,2.97
2023-05-14T21:48:40.092Z,2.78
2023-05-14T21:51:08.002Z,2.60
2023-05-14T21:53:37.183Z,2.22
2023-05-14T21:56:06.119Z,2.58
2023-05-14T21:58:33.946Z,2.58
2023-05-14T22:01:01.777Z,2.88
2023-05-14T22:03:30.048Z,2.85
2023-05-14T22:05:58.617Z,3.03
2023-05-14T22:08:27.272Z,3.08
2023-05-14T22:10:56.700Z,2.80
2023-05-14T22:13:24.739Z,2.92
2023-05-14T22:16:01.411Z,3.15
2023-05-14T22:18:37.204Z,2.95
2023-05-14T22:21:05.670Z,2.88
2023-05-14T22:23:33.512Z,3.45
2023-05-14T22:26:02.984Z,3.28
2023-05-14T22:28:30.920Z,3.58
2023-05-14T22:30:59.756Z,3.15
2023-05-14T22:33:27.920Z,3.80
2023-05-14T22:35:55.780Z,3.35
2023-05-14T22:38:23.599Z,3.08
2023-05-14T22:40:51.965Z,2.83
2023-05-14T22:43:21.213Z,2.92
2023-05-14T22:45:49.040Z,3.22
2023-05-14T22:48:17.055Z,2.88
2023-05-14T22:50:44.954Z,3.00
2023-05-14T22:53:13.510Z,3.20
2023-05-14T22:55:41.498Z,2.88
2023-05-14T22:58:09.346Z,3.05
2023-05-14T23:00:38.669Z,3.08
2023-05-14T23:03:07.460Z,3.38
2023-05-14T23:05:36.252Z,3.45
2023-05-14T23:08:04.150Z,3.35
2023-05-14T23:10:33.354Z,3.42
2023-05-14T23:13:01.210Z,3.00
2023-05-14T23:15:29.101Z,3.25
2023-05-14T23:17:59.825Z,3.38
2023-05-14T23:20:27.735Z,3.33
2023-05-14T23:22:55.553Z,3.35
2023-05-14T23:25:23.587Z,2.85
2023-05-14T23:27:51.555Z,3.63
2023-05-14T23:30:19.633Z,3.95
2023-05-14T23:32:47.625Z,3.70
2023-05-14T23:35:17.124Z,4.25
2023-05-14T23:37:47.424Z,4.13
2023-05-14T23:40:15.811Z,3.58
2023-05-14T23:42:44.643Z,3.78
2023-05-14T23:45:14.112Z,3.58
2023-05-14T23:47:42.409Z,3.70
2023-05-14T23:50:10.677Z,3.58
2023-05-14T23:52:39.997Z,4.32
2023-05-14T23:55:08.551Z,3.60
2023-05-14T23:57:36.923Z,3.50
